Time;durP1;ratioP1;P1;durP2;ratioP2;P2;SDS_P1;SDS_P2;PMS_P1;PMS_P2;Temp;Humidity;BMP_temperature;BMP_pressure;BME280_temperature;BME280_humidity;BME280_pressure;Samples;Min_cycle;Max_cycle;Signal;HPM_P1;HPM_P2
2021/08/29 00:01:14;;;;;;;;;;;14.70;99.90;;;;;;4956726;28;20365;-77
2021/08/29 00:03:39;;;;;;;;;;;14.70;99.90;;;;;;4960835;28;20521;-77
2021/08/29 00:06:04;;;;;;;;;;;14.70;99.90;;;;;;4957959;28;19922;-77
2021/08/29 00:08:30;;;;;;;;;;;14.70;99.90;;;;;;4956508;28;20285;-77
2021/08/29 00:10:55;;;;;;;;;;;14.70;99.90;;;;;;4956763;28;20401;-77
2021/08/29 00:13:21;;;;;;;;;;;14.70;99.90;;;;;;4956938;28;19937;-77
2021/08/29 00:15:46;;;;;;;;;;;14.70;99.90;;;;;;4959116;28;20068;-77
2021/08/29 00:18:12;;;;;;;;;;;14.70;99.90;;;;;;4957818;28;19919;-78
2021/08/29 00:20:37;;;;;;;;;;;14.70;99.90;;;;;;4959383;28;19921;-78
2021/08/29 00:23:03;;;;;;;;;;;14.70;99.90;;;;;;4956199;28;19914;-78
2021/08/29 00:25:28;;;;;;;;;;;14.60;99.90;;;;;;4959020;28;19919;-78
2021/08/29 00:27:54;;;;;;;;;;;14.60;99.90;;;;;;4959220;28;19922;-77
2021/08/29 00:30:19;;;;;;;;;;;14.70;99.90;;;;;;4958994;28;20342;-77
2021/08/29 00:32:45;;;;;;;;;;;14.70;99.90;;;;;;4957117;28;19941;-77
2021/08/29 00:35:10;;;;;;;;;;;14.70;99.90;;;;;;4958231;28;19918;-78
2021/08/29 00:37:36;;;;;;;;;;;14.70;99.90;;;;;;4957066;28;19918;-77
2021/08/29 00:40:01;;;;;;;;;;;14.60;99.90;;;;;;4960085;28;20254;-77
2021/08/29 00:42:26;;;;;;;;;;;14.60;99.90;;;;;;4957469;28;20396;-77
2021/08/29 00:44:52;;;;;;;;;;;14.60;99.90;;;;;;4956735;28;19918;-77
2021/08/29 00:47:18;;;;;;;;;;;14.60;99.90;;;;;;4973742;28;19914;-77
2021/08/29 00:49:44;;;;;;;;;;;14.60;99.90;;;;;;4958339;28;19914;-76
2021/08/29 00:52:10;;;;;;;;;;;14.60;99.90;;;;;;4940886;28;19914;-77
2021/08/29 00:54:36;;;;;;;;;;;14.60;99.90;;;;;;4956216;28;19915;-77
2021/08/29 00:57:06;;;;;;;;;;;14.60;99.90;;;;;;4957649;28;19983;-77
2021/08/29 00:59:32;;;;;;;;;;;14.60;99.90;;;;;;4958625;28;19922;-78
2021/08/29 01:02:02;;;;;;;;;;;14.60;99.90;;;;;;4958577;28;20446;-78
2021/08/29 01:04:32;;;;;;;;;;;14.60;99.90;;;;;;4942857;28;19914;-77
2021/08/29 01:07:02;;;;;;;;;;;14.60;99.90;;;;;;4958587;28;19918;-77
2021/08/29 01:09:28;;;;;;;;;;;14.60;99.90;;;;;;4957666;28;19972;-77
2021/08/29 01:11:53;;;;;;;;;;;14.60;99.90;;;;;;4957970;28;19915;-78
2021/08/29 01:14:21;;;;;;;;;;;14.60;99.90;;;;;;4955992;28;19923;-77
2021/08/29 01:16:49;;;;;;;;;;;14.50;99.90;;;;;;4958639;28;19914;-78
2021/08/29 01:19:16;;;;;;;;;;;14.50;99.90;;;;;;4957829;28;19957;-78
2021/08/29 01:21:43;;;;;;;;;;;14.50;99.90;;;;;;4956267;28;20189;-78
2021/08/29 01:24:09;;;;;;;;;;;14.50;99.90;;;;;;4955879;28;20637;-78
2021/08/29 01:26:44;;;;;;;;;;;14.50;99.90;;;;;;4957468;28;19968;-78
2021/08/29 01:29:10;;;;;;;;;;;14.50;99.90;;;;;;4956473;28;19922;-78
2021/08/29 01:31:37;;;;;;;;;;;14.50;99.90;;;;;;4957425;28;19918;-78
2021/08/29 01:34:07;;;;;;;;;;;14.50;99.90;;;;;;4956466;28;19918;-78
2021/08/29 01:36:33;;;;;;;;;;;14.50;99.90;;;;;;4941116;28;19941;-78
2021/08/29 01:38:59;;;;;;;;;;;14.50;99.90;;;;;;4955821;28;19977;-78
2021/08/29 01:41:25;;;;;;;;;;;14.50;99.90;;;;;;4956589;28;19930;-78
2021/08/29 01:43:51;;;;;;;;;;;14.50;99.90;;;;;;4957181;28;20097;-79
2021/08/29 01:46:18;;;;;;;;;;;14.50;99.90;;;;;;4956128;28;19914;-79
2021/08/29 01:48:44;;;;;;;;;;;14.50;99.90;;;;;;4957490;28;20021;-79
2021/08/29 01:51:10;;;;;;;;;;;14.50;99.90;;;;;;4954700;28;20017;-79
2021/08/29 01:53:36;;;;;;;;;;;14.50;99.90;;;;;;4958004;28;19910;-79
2021/08/29 01:56:02;;;;;;;;;;;14.50;99.90;;;;;;4954509;28;19940;-79
2021/08/29 01:58:27;;;;;;;;;;;14.50;99.90;;;;;;4956418;28;19918;-78
2021/08/29 02:00:55;;;;;;;;;;;14.50;99.90;;;;;;4956210;28;19968;-80
2021/08/29 02:03:21;;;;;;;;;;;14.50;99.90;;;;;;4960399;28;20001;-79
2021/08/29 02:05:48;;;;;;;;;;;14.50;99.90;;;;;;4961051;28;19918;-79
2021/08/29 02:08:15;;;;;;;;;;;14.50;99.90;;;;;;4943966;28;20469;-79
2021/08/29 02:10:41;;;;;;;;;;;14.50;99.90;;;;;;4960948;28;19919;-79
2021/08/29 02:13:10;;;;;;;;;;;14.50;99.90;;;;;;4959884;28;19915;-79
2021/08/29 02:15:40;;;;;;;;;;;14.50;99.90;;;;;;4958626;28;19926;-79
2021/08/29 02:18:06;;;;;;;;;;;14.40;99.90;;;;;;4961263;28;19937;-78
2021/08/29 02:20:32;;;;;;;;;;;14.40;99.90;;;;;;4959565;28;20286;-80
2021/08/29 02:22:58;;;;;;;;;;;14.40;99.90;;;;;;4960466;28;19910;-79
2021/08/29 02:25:24;;;;;;;;;;;14.40;99.90;;;;;;4961674;28;19926;-78
2021/08/29 02:27:49;;;;;;;;;;;14.40;99.90;;;;;;4965414;28;19968;-78
2021/08/29 02:30:15;;;;;;;;;;;14.40;99.90;;;;;;4963841;28;20397;-78
2021/08/29 02:32:41;;;;;;;;;;;14.40;99.90;;;;;;4965107;28;20060;-78
2021/08/29 02:35:07;;;;;;;;;;;14.40;99.90;;;;;;4943091;28;19918;-79
2021/08/29 02:37:33;;;;;;;;;;;14.40;99.90;;;;;;4960206;28;19925;-79
2021/08/29 02:39:59;;;;;;;;;;;14.40;99.90;;;;;;4959863;28;19920;-79
2021/08/29 02:42:28;;;;;;;;;;;14.40;99.90;;;;;;4962359;28;19910;-79
2021/08/29 02:44:54;;;;;;;;;;;14.40;99.90;;;;;;4958115;28;20384;-79
2021/08/29 02:47:20;;;;;;;;;;;14.40;99.90;;;;;;4958786;28;19930;-79
2021/08/29 02:49:46;;;;;;;;;;;14.40;99.90;;;;;;4959453;28;19945;-79
2021/08/29 02:52:12;;;;;;;;;;;14.40;99.90;;;;;;4961769;28;19997;-79
2021/08/29 02:54:40;;;;;;;;;;;14.40;99.90;;;;;;4958137;28;20013;-78
2021/08/29 02:57:07;;;;;;;;;;;14.30;99.90;;;;;;4959320;28;19920;-78
2021/08/29 02:59:33;;;;;;;;;;;14.30;99.90;;;;;;4943814;28;19975;-79
2021/08/29 03:01:58;;;;;;;;;;;14.30;99.90;;;;;;4957552;28;19919;-79
2021/08/29 03:04:23;;;;;;;;;;;14.30;99.90;;;;;;4956352;28;20437;-79
2021/08/29 03:06:49;;;;;;;;;;;14.30;99.90;;;;;;4942575;28;20395;-79
2021/08/29 03:09:14;;;;;;;;;;;14.30;99.90;;;;;;4960137;28;20321;-79
2021/08/29 03:11:40;;;;;;;;;;;14.30;99.90;;;;;;4960021;28;19921;-79
2021/08/29 03:14:06;;;;;;;;;;;14.30;99.90;;;;;;4957139;28;19914;-79
2021/08/29 03:16:31;;;;;;;;;;;14.30;99.90;;;;;;4957275;28;20489;-79
2021/08/29 03:18:58;;;;;;;;;;;14.30;99.90;;;;;;4960526;28;20001;-79
2021/08/29 03:21:23;;;;;;;;;;;14.30;99.90;;;;;;4959084;28;19915;-80
2021/08/29 03:23:49;;;;;;;;;;;14.30;99.90;;;;;;4958850;28;19960;-79
2021/08/29 03:26:15;;;;;;;;;;;14.20;99.90;;;;;;4958749;28;20027;-79
2021/08/29 03:28:40;;;;;;;;;;;14.20;99.90;;;;;;4943505;28;20258;-79
2021/08/29 03:31:05;;;;;;;;;;;14.30;99.90;;;;;;4959921;28;19914;-79
2021/08/29 03:33:32;;;;;;;;;;;14.30;99.90;;;;;;4960244;28;20230;-79
2021/08/29 03:35:58;;;;;;;;;;;14.30;99.90;;;;;;4957733;28;19919;-79
2021/08/29 03:38:25;;;;;;;;;;;14.30;99.90;;;;;;4973578;28;19929;-79
2021/08/29 03:40:51;;;;;;;;;;;14.20;99.90;;;;;;4957947;28;20332;-79
2021/08/29 03:43:16;;;;;;;;;;;14.30;99.90;;;;;;4959888;28;19910;-79
2021/08/29 03:45:42;;;;;;;;;;;14.20;99.90;;;;;;4958211;28;19926;-79
2021/08/29 03:48:08;;;;;;;;;;;14.20;99.90;;;;;;4959129;28;19925;-79
2021/08/29 03:50:34;;;;;;;;;;;14.30;99.90;;;;;;4956375;28;19918;-79
2021/08/29 03:53:00;;;;;;;;;;;14.20;99.90;;;;;;4961069;28;19911;-79
2021/08/29 03:55:26;;;;;;;;;;;14.20;99.90;;;;;;4958418;28;19977;-79
2021/08/29 03:57:53;;;;;;;;;;;14.20;99.90;;;;;;4945320;28;19972;-79
2021/08/29 04:00:21;;;;;;;;;;;14.20;99.90;;;;;;4940291;28;20301;-80
2021/08/29 04:02:46;;;;;;;;;;;14.20;99.90;;;;;;4960709;28;19917;-79
2021/08/29 04:05:12;;;;;;;;;;;14.20;99.90;;;;;;4957810;28;20381;-79
2021/08/29 04:07:38;;;;;;;;;;;14.20;99.90;;;;;;4959174;28;19915;-79
2021/08/29 04:10:04;;;;;;;;;;;14.20;99.90;;;;;;4957766;28;19914;-79
2021/08/29 04:12:29;;;;;;;;;;;14.20;99.90;;;;;;4957616;28;20395;-79
2021/08/29 04:14:56;;;;;;;;;;;14.20;99.90;;;;;;4958170;28;19976;-79
2021/08/29 04:17:22;;;;;;;;;;;14.20;99.90;;;;;;4959009;28;20344;-79
2021/08/29 04:19:48;;;;;;;;;;;14.20;99.90;;;;;;4955075;28;20353;-80
2021/08/29 04:22:14;;;;;;;;;;;14.20;99.90;;;;;;4958215;28;19915;-80
2021/08/29 04:24:39;;;;;;;;;;;14.20;99.90;;;;;;4958761;28;20009;-79
2021/08/29 04:27:05;;;;;;;;;;;14.20;99.90;;;;;;4958078;28;19993;-80
2021/08/29 04:29:30;;;;;;;;;;;14.20;99.90;;;;;;4958608;28;20028;-80
2021/08/29 04:31:57;;;;;;;;;;;14.20;99.90;;;;;;4957922;28;19914;-80
2021/08/29 04:34:22;;;;;;;;;;;14.20;99.90;;;;;;4958396;28;20389;-80
2021/08/29 04:36:48;;;;;;;;;;;14.20;99.90;;;;;;4958883;28;19910;-79
2021/08/29 04:39:13;;;;;;;;;;;14.20;99.90;;;;;;4959445;28;20262;-80
2021/08/29 04:41:39;;;;;;;;;;;14.20;99.90;;;;;;4956388;28;20012;-80
2021/08/29 04:44:05;;;;;;;;;;;14.20;99.90;;;;;;4957567;28;19915;-80
2021/08/29 04:46:31;;;;;;;;;;;14.20;99.90;;;;;;4958244;28;19921;-80
2021/08/29 04:48:57;;;;;;;;;;;14.30;99.90;;;;;;4957257;28;19914;-79
2021/08/29 04:51:22;;;;;;;;;;;14.20;99.90;;;;;;4955403;28;19922;-79
2021/08/29 04:53:48;;;;;;;;;;;14.20;99.90;;;;;;4958805;28;19918;-79
2021/08/29 04:56:13;;;;;;;;;;;14.20;99.90;;;;;;4958389;28;19915;-79
2021/08/29 04:58:38;;;;;;;;;;;14.20;99.90;;;;;;4959119;28;19925;-81
2021/08/29 05:01:04;;;;;;;;;;;14.20;99.90;;;;;;4955987;28;19915;-80
2021/08/29 05:03:29;;;;;;;;;;;14.20;99.90;;;;;;4942669;28;19914;-80
2021/08/29 05:05:56;;;;;;;;;;;14.20;99.90;;;;;;4956956;28;19914;-80
2021/08/29 05:08:22;;;;;;;;;;;14.20;99.90;;;;;;4958724;28;20430;-79
2021/08/29 05:10:47;;;;;;;;;;;14.20;99.90;;;;;;4955127;28;19944;-79
2021/08/29 05:13:12;;;;;;;;;;;14.20;99.90;;;;;;4957230;28;19915;-80
2021/08/29 05:15:38;;;;;;;;;;;14.20;99.90;;;;;;4955271;28;19918;-80
2021/08/29 05:18:03;;;;;;;;;;;14.20;99.90;;;;;;4954726;28;19918;-80
2021/08/29 05:20:29;;;;;;;;;;;14.20;99.90;;;;;;4954328;28;20308;-78
2021/08/29 05:22:54;;;;;;;;;;;14.20;99.90;;;;;;4957225;28;20361;-79
2021/08/29 05:25:20;;;;;;;;;;;14.20;99.90;;;;;;4958943;28;19914;-79
2021/08/29 05:27:45;;;;;;;;;;;14.20;99.90;;;;;;4944640;28;20003;-79
2021/08/29 05:30:11;;;;;;;;;;;14.20;99.90;;;;;;4954481;28;19919;-79
2021/08/29 05:32:36;;;;;;;;;;;14.20;99.90;;;;;;4951740;28;19925;-78
2021/08/29 05:35:02;;;;;;;;;;;14.20;99.90;;;;;;4958298;28;19922;-79
2021/08/29 05:37:28;;;;;;;;;;;14.20;99.90;;;;;;4960201;28;19924;-79
2021/08/29 05:39:53;;;;;;;;;;;14.20;99.90;;;;;;4960578;28;20393;-75
2021/08/29 05:42:18;;;;;;;;;;;14.20;99.90;;;;;;4960201;28;19921;-75
2021/08/29 05:44:44;;;;;;;;;;;14.20;99.90;;;;;;4960678;28;19918;-76
2021/08/29 05:47:09;;;;;;;;;;;14.30;99.90;;;;;;4960482;28;19921;-76
2021/08/29 05:49:35;;;;;;;;;;;14.30;99.90;;;;;;4961934;28;19924;-75
2021/08/29 05:52:00;;;;;;;;;;;14.30;99.90;;;;;;4942518;28;20014;-75
2021/08/29 05:54:26;;;;;;;;;;;14.30;99.90;;;;;;4958674;28;20304;-76
2021/08/29 05:56:51;;;;;;;;;;;14.30;99.90;;;;;;4957799;28;20366;-76
2021/08/29 05:59:16;;;;;;;;;;;14.30;99.90;;;;;;4963997;28;19922;-76
2021/08/29 06:01:42;;;;;;;;;;;14.30;99.90;;;;;;4960936;28;19910;-76
2021/08/29 06:04:07;;;;;;;;;;;14.30;99.90;;;;;;4943267;28;21841;-75
2021/08/29 06:06:34;;;;;;;;;;;14.30;99.90;;;;;;4961412;28;19918;-76
2021/08/29 06:08:59;;;;;;;;;;;14.30;99.90;;;;;;4958242;28;19918;-76
2021/08/29 06:11:25;;;;;;;;;;;14.30;99.90;;;;;;4961709;28;19918;-76
2021/08/29 06:13:50;;;;;;;;;;;14.30;99.90;;;;;;4957712;28;19914;-75
2021/08/29 06:16:16;;;;;;;;;;;14.30;99.90;;;;;;4960475;28;20001;-75
2021/08/29 06:18:41;;;;;;;;;;;14.30;99.90;;;;;;4960978;28;19910;-75
2021/08/29 06:21:06;;;;;;;;;;;14.30;99.90;;;;;;4943899;28;19929;-75
2021/08/29 06:23:32;;;;;;;;;;;14.30;99.90;;;;;;4959613;28;19921;-75
2021/08/29 06:25:57;;;;;;;;;;;14.30;99.90;;;;;;4943847;28;19955;-75
2021/08/29 06:28:23;;;;;;;;;;;14.30;99.90;;;;;;4960675;28;20448;-75
2021/08/29 06:30:49;;;;;;;;;;;14.40;99.90;;;;;;4960046;28;19993;-76
2021/08/29 06:33:14;;;;;;;;;;;14.40;99.90;;;;;;4959934;28;19914;-76
2021/08/29 06:35:39;;;;;;;;;;;14.30;99.90;;;;;;4959594;28;19910;-75
2021/08/29 06:38:05;;;;;;;;;;;14.40;99.90;;;;;;4960743;28;19929;-75
2021/08/29 06:40:31;;;;;;;;;;;14.40;99.90;;;;;;4962001;28;19918;-76
2021/08/29 06:42:56;;;;;;;;;;;14.40;99.90;;;;;;4960003;28;20365;-75
2021/08/29 06:45:22;;;;;;;;;;;14.40;99.90;;;;;;4959419;28;20437;-75
2021/08/29 06:47:47;;;;;;;;;;;14.40;99.90;;;;;;4960354;28;19923;-75
2021/08/29 06:50:13;;;;;;;;;;;14.40;99.90;;;;;;4961007;28;19914;-75
2021/08/29 06:52:38;;;;;;;;;;;14.40;99.90;;;;;;4958243;28;20281;-76
2021/08/29 06:55:04;;;;;;;;;;;14.40;99.90;;;;;;4959514;28;19917;-75
2021/08/29 06:57:30;;;;;;;;;;;14.40;99.90;;;;;;4943879;28;19915;-75
2021/08/29 06:59:55;;;;;;;;;;;14.40;99.90;;;;;;4958604;28;19919;-75
2021/08/29 07:02:21;;;;;;;;;;;14.40;99.90;;;;;;4956881;28;20407;-75
2021/08/29 07:04:47;;;;;;;;;;;14.40;99.90;;;;;;4957278;28;20408;-75
2021/08/29 07:07:13;;;;;;;;;;;14.40;99.90;;;;;;4960350;28;19964;-75
2021/08/29 07:09:39;;;;;;;;;;;14.40;99.90;;;;;;4959414;28;20384;-75
2021/08/29 07:12:04;;;;;;;;;;;14.40;99.90;;;;;;4959454;28;19922;-75
2021/08/29 07:14:30;;;;;;;;;;;14.40;99.90;;;;;;4956924;28;20566;-75
2021/08/29 07:16:55;;;;;;;;;;;14.40;99.90;;;;;;4959692;28;19914;-76
2021/08/29 07:19:21;;;;;;;;;;;14.40;99.90;;;;;;4959579;28;20363;-76
2021/08/29 07:21:46;;;;;;;;;;;14.40;99.90;;;;;;4941507;28;19998;-75
2021/08/29 07:24:11;;;;;;;;;;;14.40;99.90;;;;;;4958773;28;19920;-75
2021/08/29 07:26:37;;;;;;;;;;;14.50;99.90;;;;;;4960083;28;20377;-73
2021/08/29 07:29:02;;;;;;;;;;;14.50;99.90;;;;;;4956279;28;19929;-75
2021/08/29 07:31:28;;;;;;;;;;;14.50;99.90;;;;;;4959767;28;19953;-75
2021/08/29 07:33:55;;;;;;;;;;;14.50;99.90;;;;;;4954542;28;19926;-76
2021/08/29 07:36:20;;;;;;;;;;;14.50;99.90;;;;;;4959614;28;19919;-76
2021/08/29 07:38:46;;;;;;;;;;;14.50;99.90;;;;;;4955389;28;19915;-76
2021/08/29 07:41:12;;;;;;;;;;;14.50;99.90;;;;;;4959622;28;19913;-75
2021/08/29 07:43:37;;;;;;;;;;;14.50;99.90;;;;;;4956028;28;20338;-76
2021/08/29 07:46:03;;;;;;;;;;;14.50;99.90;;;;;;4962151;28;19918;-76
2021/08/29 07:48:28;;;;;;;;;;;14.50;99.90;;;;;;4962204;28;19918;-76
2021/08/29 07:50:53;;;;;;;;;;;14.50;99.90;;;;;;4958749;28;19979;-76
2021/08/29 07:53:19;;;;;;;;;;;14.50;99.90;;;;;;4953837;28;19914;-76
2021/08/29 07:55:44;;;;;;;;;;;14.60;99.90;;;;;;4952589;28;20621;-76
2021/08/29 07:58:10;;;;;;;;;;;14.60;99.90;;;;;;4961926;28;20359;-75
2021/08/29 08:00:36;;;;;;;;;;;14.60;99.90;;;;;;4964166;28;20472;-76
2021/08/29 08:03:01;;;;;;;;;;;14.60;99.90;;;;;;4965273;28;19911;-76
2021/08/29 08:05:27;;;;;;;;;;;14.80;99.90;;;;;;4957033;28;19918;-76
2021/08/29 08:07:52;;;;;;;;;;;14.80;99.90;;;;;;4957864;28;19984;-75
2021/08/29 08:10:20;;;;;;;;;;;14.80;99.90;;;;;;4958217;28;19914;-75
2021/08/29 08:12:46;;;;;;;;;;;14.80;99.90;;;;;;4957547;28;19957;-75
2021/08/29 08:15:11;;;;;;;;;;;14.80;99.90;;;;;;4953241;28;20003;-75
2021/08/29 08:17:37;;;;;;;;;;;14.70;99.90;;;;;;4956263;28;19965;-76
2021/08/29 08:20:02;;;;;;;;;;;14.80;99.90;;;;;;4957422;28;19914;-76
2021/08/29 08:22:28;;;;;;;;;;;14.80;99.90;;;;;;4957422;28;19997;-76
2021/08/29 08:24:53;;;;;;;;;;;14.80;99.90;;;;;;4954812;28;19921;-76
2021/08/29 08:27:19;;;;;;;;;;;14.90;99.90;;;;;;4959616;28;19910;-76
2021/08/29 08:29:44;;;;;;;;;;;14.90;99.90;;;;;;4955239;28;20012;-76
2021/08/29 08:32:10;;;;;;;;;;;14.90;99.90;;;;;;4957412;28;19957;-76
2021/08/29 08:34:35;;;;;;;;;;;14.90;99.90;;;;;;4957124;28;19930;-75
2021/08/29 08:37:00;;;;;;;;;;;14.90;99.90;;;;;;4959059;28;19914;-75
2021/08/29 08:39:26;;;;;;;;;;;15.00;99.90;;;;;;4956675;28;19918;-75
2021/08/29 08:41:51;;;;;;;;;;;15.00;99.90;;;;;;4955327;28;19914;-76
2021/08/29 08:44:17;;;;;;;;;;;15.00;99.90;;;;;;4955537;28;20384;-75
2021/08/29 08:46:43;;;;;;;;;;;15.00;99.90;;;;;;4958790;28;19989;-75
2021/08/29 08:49:09;;;;;;;;;;;15.00;99.90;;;;;;4941884;28;19923;-75
2021/08/29 08:51:36;;;;;;;;;;;15.00;99.90;;;;;;4956837;28;20292;-76
2021/08/29 08:54:02;;;;;;;;;;;15.00;99.90;;;;;;4956499;28;19966;-76
2021/08/29 08:56:28;;;;;;;;;;;15.00;99.90;;;;;;4955942;28;19922;-76
2021/08/29 08:58:57;;;;;;;;;;;15.00;99.90;;;;;;4955470;28;19925;-75
2021/08/29 09:01:23;;;;;;;;;;;15.10;99.90;;;;;;4953900;28;19961;-75
2021/08/29 09:03:48;;;;;;;;;;;15.10;99.90;;;;;;4957314;28;19961;-75
2021/08/29 09:06:14;;;;;;;;;;;15.10;99.90;;;;;;4952626;28;20004;-77
2021/08/29 09:08:39;;;;;;;;;;;15.20;99.90;;;;;;4952877;28;19938;-76
2021/08/29 09:11:05;;;;;;;;;;;15.20;99.90;;;;;;4952856;28;19914;-75
2021/08/29 09:13:49;;;;;;;;;;;15.20;99.90;;;;;;4954753;28;20002;-75
2021/08/29 09:16:16;;;;;;;;;;;15.20;99.90;;;;;;4953634;28;19960;-75
2021/08/29 09:18:45;;;;;;;;;;;15.20;99.90;;;;;;4957641;28;21899;-76
2021/08/29 09:21:16;;;;;;;;;;;15.20;99.90;;;;;;4957744;28;20534;-76
2021/08/29 09:23:42;;;;;;;;;;;15.20;99.90;;;;;;4955206;28;19959;-75
2021/08/29 09:26:10;;;;;;;;;;;15.20;99.90;;;;;;4957437;28;20005;-76
2021/08/29 09:28:35;;;;;;;;;;;15.20;99.90;;;;;;4956379;28;19918;-76
2021/08/29 09:31:01;;;;;;;;;;;15.20;99.90;;;;;;4957429;28;19917;-75
2021/08/29 09:33:30;;;;;;;;;;;15.20;99.90;;;;;;4956344;28;19922;-75
2021/08/29 09:35:56;;;;;;;;;;;15.20;99.90;;;;;;4954126;28;20285;-75
2021/08/29 09:38:21;;;;;;;;;;;15.20;99.90;;;;;;4955943;28;19914;-75
2021/08/29 09:40:47;;;;;;;;;;;15.20;99.90;;;;;;4957258;28;20009;-75
2021/08/29 09:43:13;;;;;;;;;;;15.20;99.90;;;;;;4954162;28;20054;-74
2021/08/29 09:45:40;;;;;;;;;;;15.20;99.90;;;;;;4955452;28;19933;-74
2021/08/29 09:48:07;;;;;;;;;;;15.20;99.90;;;;;;4958769;28;20565;-74
2021/08/29 09:50:33;;;;;;;;;;;15.30;99.90;;;;;;4954432;28;19918;-75
2021/08/29 09:53:03;;;;;;;;;;;15.30;99.90;;;;;;4954513;28;19918;-75
2021/08/29 09:55:39;;;;;;;;;;;15.30;99.90;;;;;;4950172;28;20349;-74
2021/08/29 09:58:23;;;;;;;;;;;15.20;99.90;;;;;;4955716;28;19915;-75
2021/08/29 10:01:08;;;;;;;;;;;15.20;99.90;;;;;;4957819;28;20363;-73
2021/08/29 10:03:35;;;;;;;;;;;15.40;99.90;;;;;;4959376;28;19909;-75
2021/08/29 10:06:12;;;;;;;;;;;15.60;99.90;;;;;;4953656;28;20369;-75
2021/08/29 10:09:04;;;;;;;;;;;15.70;99.90;;;;;;4938937;28;20005;-76
2021/08/29 10:11:31;;;;;;;;;;;15.70;99.90;;;;;;4952229;28;20357;-75
2021/08/29 10:13:57;;;;;;;;;;;15.80;99.90;;;;;;4955348;28;19956;-75
2021/08/29 10:16:24;;;;;;;;;;;15.70;99.90;;;;;;4954908;28;19918;-75
2021/08/29 10:18:50;;;;;;;;;;;15.70;99.90;;;;;;4955937;28;19972;-75
2021/08/29 10:21:17;;;;;;;;;;;15.80;99.90;;;;;;4956616;28;19914;-75
2021/08/29 10:23:44;;;;;;;;;;;15.80;99.90;;;;;;4944618;28;20319;-75
2021/08/29 10:26:10;;;;;;;;;;;15.80;99.90;;;;;;4959270;28;20412;-75
2021/08/29 10:28:38;;;;;;;;;;;15.90;99.90;;;;;;4943630;28;20025;-76
2021/08/29 10:31:04;;;;;;;;;;;15.90;99.90;;;;;;4960945;28;19914;-76
2021/08/29 10:33:30;;;;;;;;;;;15.90;99.90;;;;;;4943319;28;19925;-76
2021/08/29 10:35:55;;;;;;;;;;;16.00;99.90;;;;;;4943605;28;19922;-75
2021/08/29 10:38:21;;;;;;;;;;;16.10;99.90;;;;;;4959410;28;20376;-75
2021/08/29 10:40:49;;;;;;;;;;;16.20;99.90;;;;;;4944706;28;19922;-76
2021/08/29 10:43:15;;;;;;;;;;;16.20;99.90;;;;;;4959055;28;20401;-75
2021/08/29 10:45:40;;;;;;;;;;;16.30;99.90;;;;;;4959623;28;19915;-77
2021/08/29 10:48:07;;;;;;;;;;;16.30;99.90;;;;;;4959875;28;19930;-77
2021/08/29 10:50:33;;;;;;;;;;;16.30;99.90;;;;;;4944306;28;19966;-77
2021/08/29 10:52:58;;;;;;;;;;;16.30;99.90;;;;;;4943016;28;19921;-77
2021/08/29 10:55:27;;;;;;;;;;;16.30;99.90;;;;;;4961331;28;19925;-77
2021/08/29 10:58:00;;;;;;;;;;;16.30;99.90;;;;;;4960427;28;19926;-77
2021/08/29 11:00:26;;;;;;;;;;;16.30;99.90;;;;;;4959626;28;19915;-77
2021/08/29 11:02:52;;;;;;;;;;;16.30;99.90;;;;;;4959757;28;19941;-77
2021/08/29 11:05:29;;;;;;;;;;;16.30;99.90;;;;;;4960533;28;20373;-77
2021/08/29 11:07:56;;;;;;;;;;;16.30;99.90;;;;;;4960328;28;19918;-77
2021/08/29 11:10:39;;;;;;;;;;;16.30;99.90;;;;;;4960472;28;19918;-77
2021/08/29 11:13:23;;;;;;;;;;;16.30;99.90;;;;;;4959216;28;19971;-77
2021/08/29 11:16:09;;;;;;;;;;;16.40;99.90;;;;;;4943496;28;19987;-77
2021/08/29 11:19:07;;;;;;;;;;;16.40;99.90;;;;;;4942730;28;19914;-77
2021/08/29 11:21:35;;;;;;;;;;;16.50;99.90;;;;;;4960790;28;20344;-77
2021/08/29 11:24:01;;;;;;;;;;;16.60;99.90;;;;;;4957898;28;20258;-77
2021/08/29 11:26:30;;;;;;;;;;;16.80;99.90;;;;;;4956525;28;19972;-77
2021/08/29 11:29:37;;;;;;;;;;;16.90;99.90;;;;;;4957292;28;20377;-77
2021/08/29 11:32:40;;;;;;;;;;;17.00;99.90;;;;;;5037947;28;20499;-77
2021/08/29 11:35:30;;;;;;;;;;;17.10;99.90;;;;;;5002242;28;19917;-77
2021/08/29 11:38:45;;;;;;;;;;;17.10;99.90;;;;;;4989331;28;19915;-77
2021/08/29 11:41:53;;;;;;;;;;;17.10;99.90;;;;;;4901562;28;19924;-77
2021/08/29 11:45:09;;;;;;;;;;;17.20;99.90;;;;;;4902783;28;19916;-77
2021/08/29 11:47:55;;;;;;;;;;;17.20;99.90;;;;;;4941255;28;20274;-76
2021/08/29 11:50:24;;;;;;;;;;;17.30;99.90;;;;;;4982728;28;19920;-77
2021/08/29 11:52:57;;;;;;;;;;;17.30;99.90;;;;;;4961491;28;19915;-76
2021/08/29 11:55:23;;;;;;;;;;;17.40;99.90;;;;;;4934590;28;19923;-76
2021/08/29 11:57:52;;;;;;;;;;;17.50;99.90;;;;;;4959113;28;20269;-76
2021/08/29 12:00:19;;;;;;;;;;;17.50;99.90;;;;;;4959934;28;19915;-76
2021/08/29 12:02:45;;;;;;;;;;;17.50;99.90;;;;;;4957242;28;19937;-76
2021/08/29 12:05:15;;;;;;;;;;;17.60;99.90;;;;;;4953625;28;20368;-76
2021/08/29 12:08:03;;;;;;;;;;;17.60;99.90;;;;;;4960266;28;19918;-76
2021/08/29 12:10:29;;;;;;;;;;;17.60;99.90;;;;;;4952206;28;19918;-75
2021/08/29 12:12:55;;;;;;;;;;;17.60;99.90;;;;;;4958489;28;20335;-75
2021/08/29 12:15:23;;;;;;;;;;;17.50;99.90;;;;;;4953684;28;19918;-76
2021/08/29 12:17:55;;;;;;;;;;;17.50;99.90;;;;;;4955857;28;19915;-75
2021/08/29 12:20:21;;;;;;;;;;;17.40;99.90;;;;;;4961535;28;19993;-75
2021/08/29 12:22:46;;;;;;;;;;;17.40;99.80;;;;;;4956007;28;20392;-76
2021/08/29 12:25:12;;;;;;;;;;;17.40;99.90;;;;;;4956914;28;19918;-76
2021/08/29 12:27:37;;;;;;;;;;;17.30;99.90;;;;;;4972026;28;19945;-76
2021/08/29 12:30:05;;;;;;;;;;;17.30;99.90;;;;;;4957910;28;19918;-76
2021/08/29 12:32:31;;;;;;;;;;;17.30;99.90;;;;;;4958107;28;19914;-76
2021/08/29 12:34:58;;;;;;;;;;;17.30;99.90;;;;;;4957532;28;19918;-76
2021/08/29 12:37:24;;;;;;;;;;;17.20;99.90;;;;;;4955484;28;19929;-76
2021/08/29 12:40:06;;;;;;;;;;;17.10;99.90;;;;;;4959948;28;19911;-76
2021/08/29 12:42:33;;;;;;;;;;;17.10;99.90;;;;;;4959217;28;19975;-77
2021/08/29 12:44:59;;;;;;;;;;;17.10;99.90;;;;;;4955499;28;20005;-76
2021/08/29 12:47:25;;;;;;;;;;;17.10;99.90;;;;;;4955335;28;20365;-76
2021/08/29 12:49:51;;;;;;;;;;;17.10;99.90;;;;;;4955758;28;19922;-76
2021/08/29 12:52:21;;;;;;;;;;;17.20;99.90;;;;;;4956656;28;20416;-74
2021/08/29 12:54:47;;;;;;;;;;;17.20;99.90;;;;;;4955564;28;19922;-74
2021/08/29 12:57:12;;;;;;;;;;;17.20;99.90;;;;;;4956813;28;19925;-75
2021/08/29 12:59:39;;;;;;;;;;;17.20;99.90;;;;;;4952103;28;19919;-75
2021/08/29 13:02:05;;;;;;;;;;;17.30;99.90;;;;;;4957502;28;19913;-75
2021/08/29 13:04:31;;;;;;;;;;;17.20;99.90;;;;;;4952735;28;20028;-76
2021/08/29 13:07:09;;;;;;;;;;;17.20;99.90;;;;;;4955662;28;20373;-75
2021/08/29 13:09:35;;;;;;;;;;;17.20;99.90;;;;;;4954111;28;19922;-76
2021/08/29 13:12:01;;;;;;;;;;;17.20;99.90;;;;;;4957114;28;19955;-76
2021/08/29 13:14:28;;;;;;;;;;;17.30;99.90;;;;;;4953776;28;19953;-77
2021/08/29 13:16:54;;;;;;;;;;;17.40;99.90;;;;;;4955930;28;19957;-78
2021/08/29 13:19:24;;;;;;;;;;;17.40;99.90;;;;;;4956467;28;19919;-77
2021/08/29 13:21:56;;;;;;;;;;;17.50;99.90;;;;;;4954903;28;20277;-78
2021/08/29 13:24:29;;;;;;;;;;;17.60;99.90;;;;;;4955035;28;19914;-75
2021/08/29 13:26:55;;;;;;;;;;;17.70;99.90;;;;;;4941674;28;20103;-75
2021/08/29 13:29:21;;;;;;;;;;;17.70;99.90;;;;;;4938777;28;20444;-75
2021/08/29 13:31:51;;;;;;;;;;;17.70;99.90;;;;;;4955556;28;20005;-75
2021/08/29 13:34:26;;;;;;;;;;;17.70;99.90;;;;;;4953405;28;19997;-75
2021/08/29 13:36:51;;;;;;;;;;;17.70;99.90;;;;;;4953343;28;20328;-75
2021/08/29 13:39:17;;;;;;;;;;;17.70;99.90;;;;;;4938884;28;19963;-75
2021/08/29 13:41:43;;;;;;;;;;;17.70;99.90;;;;;;4954859;28;19915;-75
2021/08/29 13:44:13;;;;;;;;;;;17.90;99.90;;;;;;4955711;28;20013;-75
2021/08/29 13:46:39;;;;;;;;;;;17.80;99.90;;;;;;4956032;28;19950;-75
2021/08/29 13:49:04;;;;;;;;;;;17.90;99.90;;;;;;4952710;28;19965;-75
2021/08/29 13:51:30;;;;;;;;;;;17.90;99.90;;;;;;4954681;28;20025;-75
2021/08/29 13:53:55;;;;;;;;;;;17.80;99.90;;;;;;4954151;28;19925;-75
2021/08/29 13:56:22;;;;;;;;;;;17.90;99.80;;;;;;4954814;28;19921;-75
2021/08/29 13:58:47;;;;;;;;;;;17.80;99.50;;;;;;4958397;28;19975;-75
2021/08/29 14:01:13;;;;;;;;;;;17.90;99.70;;;;;;4940658;28;19922;-75
2021/08/29 14:03:38;;;;;;;;;;;17.90;99.80;;;;;;4959842;28;20076;-76
2021/08/29 14:06:04;;;;;;;;;;;17.90;99.70;;;;;;4954542;28;19976;-76
2021/08/29 14:08:34;;;;;;;;;;;17.90;99.80;;;;;;4957590;28;19929;-76
2021/08/29 14:10:59;;;;;;;;;;;18.00;99.80;;;;;;4956762;28;19921;-76
2021/08/29 14:13:25;;;;;;;;;;;18.00;99.60;;;;;;4955632;28;19914;-77
2021/08/29 14:15:52;;;;;;;;;;;17.90;99.50;;;;;;4955713;28;19914;-77
2021/08/29 14:18:17;;;;;;;;;;;17.90;99.50;;;;;;4958934;28;19918;-77